createdAt,value
2023-02-02T00:00:19.924Z,17.98
2023-02-02T00:03:10.804Z,12.85
2023-02-02T00:05:57.895Z,15.45
2023-02-02T00:08:45.195Z,12.40
2023-02-02T00:11:32.343Z,16.55
2023-02-02T00:14:19.464Z,13.93
2023-02-02T00:17:11.221Z,11.00
2023-02-02T00:19:58.321Z,12.73
2023-02-02T00:22:45.544Z,16.48
2023-02-02T00:25:32.772Z,15.68
2023-02-02T00:28:22.078Z,12.10
2023-02-02T00:31:09.626Z,12.80
2023-02-02T00:33:59.907Z,11.10
2023-02-02T00:36:48.274Z,11.45
2023-02-02T00:39:35.741Z,8.38
2023-02-02T00:42:22.841Z,12.13
2023-02-02T00:45:16.577Z,8.63
2023-02-02T00:48:06.601Z,15.68
2023-02-02T00:50:54.061Z,9.55
2023-02-02T00:53:43.707Z,10.10
2023-02-02T00:56:30.823Z,12.43
2023-02-02T00:59:20.620Z,13.00
2023-02-02T01:02:12.087Z,11.82
2023-02-02T01:04:59.288Z,13.00
2023-02-02T01:07:47.206Z,10.85
2023-02-02T01:10:35.458Z,14.82
2023-02-02T01:13:22.560Z,13.50
2023-02-02T01:16:10.961Z,10.32
2023-02-02T01:18:58.164Z,14.05
2023-02-02T01:21:45.649Z,7.28
2023-02-02T01:24:32.853Z,14.93
2023-02-02T01:27:22.378Z,15.80
2023-02-02T01:30:10.235Z,15.57
2023-02-02T01:32:59.560Z,12.70
2023-02-02T01:35:53.278Z,15.88
2023-02-02T01:38:41.074Z,14.65
2023-02-02T01:41:30.628Z,16.90
2023-02-02T01:44:57.858Z,10.18
2023-02-02T01:47:57.848Z,11.27
2023-02-02T01:50:47.248Z,16.63
2023-02-02T01:53:34.868Z,11.95
2023-02-02T01:56:30.961Z,21.00
2023-02-02T01:59:20.936Z,11.40
2023-02-02T02:02:10.703Z,14.73
2023-02-02T02:05:01.643Z,15.43
2023-02-02T02:07:53.088Z,17.50
2023-02-02T02:10:40.483Z,11.65
2023-02-02T02:13:47.699Z,13.23
2023-02-02T02:17:26.143Z,14.20
2023-02-02T02:20:54.492Z,9.85
2023-02-02T02:24:29.826Z,14.63
2023-02-02T02:27:28.722Z,14.27
2023-02-02T02:30:21.637Z,10.63
2023-02-02T02:33:27.697Z,11.75
2023-02-02T02:36:20.011Z,13.63
2023-02-02T02:39:17.206Z,8.20
2023-02-02T02:42:11.300Z,8.15
2023-02-02T02:45:02.691Z,7.47
2023-02-02T02:47:51.305Z,8.48
2023-02-02T02:50:40.928Z,9.98
2023-02-02T02:53:30.250Z,12.90
2023-02-02T02:56:32.115Z,9.63
2023-02-02T02:59:33.968Z,10.97
2023-02-02T03:02:33.855Z,5.97
2023-02-02T03:05:28.971Z,3.92
2023-02-02T03:08:32.773Z,7.20
2023-02-02T03:11:22.654Z,6.63
2023-02-02T03:14:09.822Z,6.22
2023-02-02T03:16:56.898Z,6.97
2023-02-02T03:19:46.304Z,4.20
2023-02-02T03:22:33.457Z,5.63
2023-02-02T03:25:20.563Z,5.03
2023-02-02T03:28:07.929Z,8.10
2023-02-02T03:30:56.278Z,6.53
2023-02-02T03:33:46.287Z,6.25
2023-02-02T03:36:33.466Z,7.20
2023-02-02T03:39:20.557Z,6.90
2023-02-02T03:42:08.019Z,6.95
2023-02-02T03:44:55.135Z,10.27
2023-02-02T03:47:42.266Z,11.23
2023-02-02T03:50:29.380Z,8.63
2023-02-02T03:53:16.966Z,4.75
2023-02-02T03:56:04.364Z,6.85
2023-02-02T03:58:51.633Z,9.48
2023-02-02T04:01:39.150Z,7.43
2023-02-02T04:04:26.206Z,6.63
2023-02-02T04:07:13.398Z,11.35
2023-02-02T04:10:00.543Z,6.32
2023-02-02T04:12:47.705Z,5.65
2023-02-02T04:15:36.189Z,7.40
2023-02-02T04:18:23.245Z,5.22
2023-02-02T04:21:12.923Z,7.22
2023-02-02T04:24:00.761Z,7.78
2023-02-02T04:26:47.980Z,5.75
2023-02-02T04:29:35.483Z,5.60
2023-02-02T04:32:27.621Z,10.25
2023-02-02T04:35:14.705Z,12.23
2023-02-02T04:38:02.397Z,4.95
2023-02-02T04:40:49.964Z,10.32
2023-02-02T04:43:39.352Z,10.05
2023-02-02T04:46:28.227Z,6.13
2023-02-02T04:49:15.541Z,4.93
2023-02-02T04:52:05.070Z,6.00
2023-02-02T04:54:52.210Z,12.10
2023-02-02T04:57:39.477Z,9.60
2023-02-02T05:00:26.649Z,5.85
2023-02-02T05:07:15.219Z,4.57
2023-02-02T05:10:07.091Z,9.07
2023-02-02T05:12:55.240Z,5.55
2023-02-02T05:15:42.310Z,8.95
2023-02-02T05:18:31.603Z,8.50
2023-02-02T05:21:19.442Z,7.88
2023-02-02T05:24:06.831Z,11.23
2023-02-02T05:26:58.487Z,11.32
2023-02-02T05:29:47.411Z,4.93
2023-02-02T05:32:34.495Z,12.85
2023-02-02T05:35:23.159Z,6.07
2023-02-02T05:38:10.555Z,9.27
2023-02-02T05:40:59.765Z,8.18
2023-02-02T05:43:49.968Z,9.63
2023-02-02T05:46:37.053Z,7.88
2023-02-02T05:49:24.438Z,6.25
2023-02-02T05:52:19.220Z,11.80
2023-02-02T05:55:09.738Z,7.25
2023-02-02T05:57:56.812Z,7.57
2023-02-02T06:00:43.887Z,8.32
2023-02-02T06:03:31.246Z,12.07
2023-02-02T06:06:18.772Z,7.20
2023-02-02T06:09:10.592Z,7.63
2023-02-02T06:11:57.690Z,11.02
2023-02-02T06:14:55.299Z,5.38
2023-02-02T06:17:42.356Z,7.07
2023-02-02T06:20:31.964Z,9.90
2023-02-02T06:23:19.062Z,6.57
2023-02-02T06:26:08.265Z,4.38
2023-02-02T06:28:55.666Z,14.98
2023-02-02T06:31:42.924Z,5.82
2023-02-02T06:34:30.177Z,8.63
2023-02-02T06:37:19.743Z,8.07
2023-02-02T06:40:10.878Z,9.95
2023-02-02T06:43:01.783Z,7.05
2023-02-02T06:45:49.251Z,5.95
2023-02-02T06:48:38.802Z,11.90
2023-02-02T06:51:36.066Z,13.10
2023-02-02T06:54:23.170Z,8.00
2023-02-02T06:57:10.430Z,5.93
2023-02-02T06:59:57.521Z,10.10
2023-02-02T07:02:51.340Z,7.15
2023-02-02T07:05:41.140Z,5.57
2023-02-02T07:08:53.119Z,7.05
2023-02-02T07:28:09.726Z,11.80
2023-02-02T07:31:00.238Z,12.18
2023-02-02T07:33:48.367Z,9.88
2023-02-02T07:36:37.333Z,11.02
2023-02-02T07:39:24.707Z,11.45
2023-02-02T07:42:16.112Z,12.38
2023-02-02T07:45:24.571Z,10.40
2023-02-02T07:48:18.969Z,20.25
2023-02-02T07:51:11.588Z,12.75
2023-02-02T07:56:48.814Z,14.00
2023-02-02T07:59:36.061Z,13.82
2023-02-02T08:02:23.464Z,11.45
2023-02-02T08:05:23.563Z,25.25
2023-02-02T08:08:25.064Z,11.23
2023-02-02T08:11:20.489Z,13.75
2023-02-02T08:14:10.523Z,9.75
2023-02-02T08:16:57.739Z,11.32
2023-02-02T08:19:47.265Z,9.77
2023-02-02T08:22:34.622Z,13.02
2023-02-02T08:25:21.906Z,10.05
2023-02-02T08:28:09.946Z,12.85
2023-02-02T08:31:01.450Z,14.43
2023-02-02T08:33:54.114Z,10.95
2023-02-02T08:39:30.655Z,9.68
2023-02-02T08:42:18.267Z,8.52
2023-02-02T08:46:01.276Z,14.35
2023-02-02T08:48:17.145Z,12.60
2023-02-02T08:51:12.894Z,7.82
2023-02-02T08:54:00.236Z,8.82
2023-02-02T08:56:50.775Z,11.30
2023-02-02T08:59:38.031Z,10.93
2023-02-02T09:06:38.231Z,10.40
2023-02-02T09:09:43.827Z,14.33
2023-02-02T09:12:44.619Z,11.63
2023-02-02T09:19:14.552Z,13.63
2023-02-02T09:22:11.973Z,13.77
2023-02-02T09:31:14.729Z,8.60
2023-02-02T09:34:04.044Z,17.33
2023-02-02T09:37:01.721Z,11.95
2023-02-02T09:39:53.015Z,10.27
2023-02-02T09:47:37.999Z,12.65
2023-02-02T09:51:42.865Z,15.77
2023-02-02T09:54:50.430Z,13.95
2023-02-02T09:58:44.699Z,19.75
2023-02-02T10:01:16.552Z,12.55
2023-02-02T10:04:38.615Z,14.02
2023-02-02T10:08:14.025Z,9.77
2023-02-02T10:11:34.970Z,9.32
2023-02-02T10:15:25.036Z,13.38
2023-02-02T10:18:22.905Z,8.18
2023-02-02T10:21:54.817Z,9.00
2023-02-02T10:24:48.314Z,13.02
2023-02-02T10:27:41.333Z,13.80
2023-02-02T10:30:46.232Z,12.10
2023-02-02T10:33:45.848Z,9.38
2023-02-02T10:36:48.990Z,13.88
2023-02-02T10:39:39.416Z,12.70
2023-02-02T10:43:14.989Z,10.52
2023-02-02T10:46:14.748Z,11.68
2023-02-02T10:49:24.503Z,11.52
2023-02-02T10:52:23.180Z,9.32
2023-02-02T10:56:18.762Z,10.73
2023-02-02T10:59:52.892Z,9.43
2023-02-02T11:03:42.228Z,6.20
2023-02-02T11:07:33.015Z,13.35
2023-02-02T11:14:14.676Z,12.70
2023-02-02T11:21:13.892Z,9.23
2023-02-02T11:24:51.001Z,10.25
2023-02-02T11:28:38.015Z,10.68
2023-02-02T11:31:54.650Z,8.73
2023-02-02T11:36:29.866Z,6.70
2023-02-02T11:38:47.145Z,9.38
2023-02-02T11:41:35.731Z,12.90
2023-02-02T11:44:28.705Z,7.88
2023-02-02T11:47:33.073Z,11.10
2023-02-02T11:53:35.877Z,12.27
2023-02-02T11:56:31.131Z,8.02
2023-02-02T11:59:39.944Z,7.38
2023-02-02T12:05:44.472Z,11.85
2023-02-02T12:08:43.391Z,9.73
2023-02-02T12:11:58.867Z,10.15
2023-02-02T12:15:53.687Z,7.55
2023-02-02T12:19:20.937Z,10.55
2023-02-02T12:22:45.728Z,13.90
2023-02-02T12:25:47.130Z,13.18
2023-02-02T12:29:20.068Z,13.82
2023-02-02T12:32:17.728Z,11.35
2023-02-02T12:35:33.766Z,8.98
2023-02-02T12:38:41.224Z,8.80
2023-02-02T12:41:56.373Z,8.48
2023-02-02T12:45:11.297Z,12.35
2023-02-02T12:52:16.286Z,10.60
2023-02-02T12:59:29.834Z,6.53
2023-02-02T13:03:17.912Z,10.38
2023-02-02T13:06:48.929Z,6.88
2023-02-02T13:09:49.189Z,7.97
2023-02-02T13:13:26.868Z,8.40
2023-02-02T13:16:19.241Z,7.32
2023-02-02T13:19:33.853Z,6.95
2023-02-02T13:22:47.633Z,10.45
2023-02-02T13:26:22.670Z,9.80
2023-02-02T13:29:47.625Z,8.02
2023-02-02T13:33:00.442Z,13.60
2023-02-02T13:35:58.606Z,15.32
2023-02-02T13:38:49.775Z,7.47
2023-02-02T13:41:41.558Z,14.20
2023-02-02T13:44:58.931Z,11.80
2023-02-02T13:48:24.433Z,11.82
2023-02-02T13:53:23.507Z,7.00
2023-02-02T13:56:24.357Z,10.60
2023-02-02T14:00:11.798Z,8.23
2023-02-02T14:04:13.165Z,7.57
2023-02-02T14:10:49.981Z,7.88
2023-02-02T14:17:40.573Z,9.50
2023-02-02T14:20:49.245Z,8.90
2023-02-02T14:24:09.486Z,8.82
2023-02-02T14:27:09.079Z,14.25
2023-02-02T14:33:41.477Z,16.48
2023-02-02T14:36:42.702Z,11.73
2023-02-02T14:43:56.627Z,14.75
2023-02-02T14:47:33.182Z,11.52
2023-02-02T14:51:44.323Z,6.93
2023-02-02T14:54:29.210Z,9.82
2023-02-02T14:57:42.484Z,9.55
2023-02-02T15:00:37.907Z,8.95
2023-02-02T15:04:08.767Z,13.23
2023-02-02T15:11:44.644Z,12.88
2023-02-02T15:26:41.037Z,18.05
2023-02-02T15:30:15.028Z,19.08
2023-02-02T15:33:15.045Z,13.65
2023-02-02T15:40:30.766Z,8.55
2023-02-02T15:47:20.606Z,11.75
2023-02-02T15:58:24.362Z,18.02
2023-02-02T16:01:25.565Z,11.38
2023-02-02T16:04:35.206Z,8.13
2023-02-02T16:07:32.546Z,11.57
2023-02-02T16:10:24.528Z,12.55
2023-02-02T16:14:07.851Z,13.60
2023-02-02T16:16:58.031Z,12.88
2023-02-02T16:19:46.033Z,14.52
2023-02-02T16:22:38.499Z,9.05
2023-02-02T16:25:26.659Z,15.05
2023-02-02T16:28:24.944Z,9.60
2023-02-02T16:31:14.653Z,9.77
2023-02-02T16:34:03.190Z,12.38
2023-02-02T16:37:14.826Z,10.80
2023-02-02T16:40:29.325Z,10.77
2023-02-02T16:43:27.318Z,8.23
2023-02-02T16:46:42.885Z,7.72
2023-02-02T16:49:35.159Z,8.52
2023-02-02T16:52:35.309Z,10.38
2023-02-02T16:55:49.817Z,8.82
2023-02-02T16:58:52.389Z,10.63
2023-02-02T17:01:59.874Z,14.48
2023-02-02T17:04:52.709Z,12.50
2023-02-02T17:07:46.770Z,11.43
2023-02-02T17:10:38.312Z,9.50
2023-02-02T17:13:35.809Z,7.47
2023-02-02T17:16:25.183Z,9.77
2023-02-02T17:19:15.172Z,8.40
2023-02-02T17:22:05.363Z,7.18
2023-02-02T17:24:53.210Z,5.10
2023-02-02T17:27:41.132Z,8.90
2023-02-02T17:30:40.447Z,7.45
2023-02-02T17:33:28.641Z,8.23
2023-02-02T17:36:17.265Z,7.75
2023-02-02T17:39:07.091Z,6.47
2023-02-02T17:41:54.529Z,8.48
2023-02-02T17:44:44.216Z,9.27
2023-02-02T17:47:31.471Z,10.57
2023-02-02T17:50:20.153Z,6.60
2023-02-02T17:53:14.126Z,7.50
2023-02-02T17:56:01.689Z,5.65
2023-02-02T17:58:49.500Z,6.78
2023-02-02T18:01:39.610Z,11.90
2023-02-02T18:04:27.022Z,5.85
2023-02-02T18:07:15.293Z,5.35
2023-02-02T18:10:06.996Z,7.55
2023-02-02T18:12:54.132Z,6.00
2023-02-02T18:15:44.384Z,4.38
2023-02-02T18:18:31.530Z,11.32
2023-02-02T18:21:18.718Z,5.10
2023-02-02T18:24:08.647Z,7.47
2023-02-02T18:26:55.840Z,8.32
2023-02-02T18:29:43.664Z,5.72
2023-02-02T18:32:31.852Z,3.53
2023-02-02T18:35:19.499Z,5.40
2023-02-02T18:38:08.175Z,9.70
2023-02-02T18:40:58.260Z,5.22
2023-02-02T18:43:48.701Z,7.32
2023-02-02T18:46:38.722Z,6.95
2023-02-02T18:49:27.199Z,5.22
2023-02-02T18:52:15.712Z,3.72
2023-02-02T18:55:03.146Z,3.70
2023-02-02T18:57:51.042Z,5.10
2023-02-02T19:00:39.762Z,5.40
2023-02-02T19:03:27.076Z,5.80
2023-02-02T19:06:33.272Z,4.10
2023-02-02T19:09:22.570Z,5.07
2023-02-02T19:12:17.659Z,3.88
2023-02-02T19:15:15.860Z,3.75
2023-02-02T19:18:14.037Z,9.73
2023-02-02T19:21:04.549Z,5.55
2023-02-02T19:23:54.695Z,5.88
2023-02-02T19:26:46.625Z,6.22
2023-02-02T19:29:38.952Z,4.80
2023-02-02T19:32:31.595Z,8.98
2023-02-02T19:38:14.099Z,6.15
2023-02-02T19:41:21.020Z,12.63
2023-02-02T19:44:17.282Z,6.25
2023-02-02T19:47:26.293Z,4.30
2023-02-02T19:50:22.943Z,10.43
2023-02-02T19:53:39.008Z,8.15
2023-02-02T19:56:38.602Z,9.75
2023-02-02T19:59:31.081Z,9.93
2023-02-02T20:02:21.583Z,5.18
2023-02-02T20:05:12.638Z,5.13
2023-02-02T20:08:26.697Z,7.10
2023-02-02T20:11:33.473Z,4.25
2023-02-02T20:14:33.547Z,4.25
2023-02-02T20:17:29.663Z,5.18
2023-02-02T20:20:44.540Z,5.05
2023-02-02T20:23:43.080Z,5.93
2023-02-02T20:26:37.746Z,5.32
2023-02-02T20:29:38.753Z,4.45
2023-02-02T20:32:30.707Z,9.15
2023-02-02T20:35:36.041Z,6.20
2023-02-02T20:38:38.418Z,6.10
2023-02-02T20:41:26.326Z,6.30
2023-02-02T21:05:57.409Z,3.72
2023-02-02T21:17:47.959Z,8.38
2023-02-02T21:20:43.703Z,2.63
2023-02-02T21:23:31.406Z,5.93
2023-02-02T21:26:23.699Z,8.60
2023-02-02T21:29:11.217Z,5.63
2023-02-02T21:32:02.997Z,3.22
2023-02-02T21:34:50.667Z,4.00
2023-02-02T21:37:38.097Z,7.25
2023-02-02T21:40:29.896Z,3.38
2023-02-02T21:43:19.268Z,4.15
2023-02-02T21:46:19.588Z,5.65
2023-02-02T21:49:18.905Z,8.80
2023-02-02T21:52:19.017Z,4.10
2023-02-02T21:55:34.879Z,5.10
2023-02-02T21:58:26.831Z,5.47
2023-02-02T22:01:16.454Z,4.05
2023-02-02T22:04:04.348Z,4.53
2023-02-02T22:07:00.903Z,3.67
2023-02-02T22:09:58.425Z,6.22
2023-02-02T22:12:45.599Z,3.60
2023-02-02T22:15:34.846Z,6.07
2023-02-02T22:18:26.672Z,4.38
2023-02-02T22:21:21.112Z,4.47
2023-02-02T22:24:14.855Z,4.07
2023-02-02T22:27:02.809Z,4.18
2023-02-02T22:30:15.167Z,4.78
2023-02-02T22:33:02.801Z,3.85
2023-02-02T22:35:50.071Z,4.65
2023-02-02T22:38:37.315Z,4.05
2023-02-02T22:41:24.646Z,3.88
2023-02-02T22:44:11.903Z,4.70
2023-02-02T22:46:59.269Z,6.78
2023-02-02T22:49:48.738Z,4.35
2023-02-02T22:52:36.176Z,3.13
2023-02-02T22:55:23.792Z,6.22
2023-02-02T22:58:13.359Z,1.95
2023-02-02T23:01:02.019Z,2.30
2023-02-02T23:03:52.048Z,4.22
2023-02-02T23:06:39.391Z,4.15
2023-02-02T23:09:27.896Z,3.08
2023-02-02T23:12:15.296Z,3.20
2023-02-02T23:15:02.811Z,3.05
2023-02-02T23:17:50.287Z,2.95
2023-02-02T23:20:38.616Z,3.30
2023-02-02T23:23:25.816Z,3.85
2023-02-02T23:26:13.057Z,4.10
2023-02-02T23:29:02.711Z,2.53
2023-02-02T23:31:50.984Z,5.57
2023-02-02T23:34:40.113Z,2.47
2023-02-02T23:37:29.501Z,4.85
2023-02-02T23:40:16.734Z,3.90
2023-02-02T23:43:03.959Z,2.47
2023-02-02T23:45:51.256Z,4.38
2023-02-02T23:48:38.997Z,2.10
2023-02-02T23:51:28.756Z,3.72
2023-02-02T23:54:18.112Z,3.20
2023-02-02T23:57:05.584Z,1.67
2023-02-02T23:59:53.143Z,2.67
